createdAt,value
2023-08-01T00:00:33.603Z,19.74
2023-08-01T00:02:35.951Z,19.64
2023-08-01T00:04:41.227Z,19.60
2023-08-01T00:06:46.149Z,19.62
2023-08-01T00:08:54.177Z,19.61
2023-08-01T00:10:59.110Z,19.63
2023-08-01T00:13:04.243Z,19.64
2023-08-01T00:15:14.675Z,19.63
2023-08-01T00:17:24.666Z,19.59
2023-08-01T00:19:31.511Z,19.62
2023-08-01T00:21:36.685Z,19.62
2023-08-01T00:23:41.480Z,19.60
2023-08-01T00:25:52.952Z,19.58
2023-08-01T00:27:58.006Z,19.58
2023-08-01T00:30:03.157Z,19.59
2023-08-01T00:32:08.350Z,19.57
2023-08-01T00:34:13.772Z,19.59
2023-08-01T00:36:18.773Z,19.63
2023-08-01T00:38:26.215Z,19.60
2023-08-01T00:40:34.259Z,19.56
2023-08-01T00:42:39.985Z,19.59
2023-08-01T00:44:45.589Z,19.57
2023-08-01T00:46:50.620Z,19.54
2023-08-01T00:48:59.284Z,19.56
2023-08-01T00:51:12.090Z,19.60
2023-08-01T00:53:17.054Z,19.57
2023-08-01T00:55:22.486Z,19.58
2023-08-01T00:57:24.937Z,19.59
2023-08-01T00:59:32.569Z,19.55
2023-08-01T01:01:37.859Z,19.51
2023-08-01T01:03:43.085Z,19.51
2023-08-01T01:05:57.360Z,19.47
2023-08-01T01:08:02.488Z,19.47
2023-08-01T01:10:08.438Z,19.47
2023-08-01T01:12:15.804Z,19.42
2023-08-01T01:14:18.370Z,19.45
2023-08-01T01:16:27.163Z,19.40
2023-08-01T01:18:32.072Z,19.42
2023-08-01T01:20:40.616Z,19.44
2023-08-01T01:22:46.035Z,19.39
2023-08-01T01:24:52.380Z,19.41
2023-08-01T01:27:00.941Z,19.42
2023-08-01T01:29:07.053Z,19.42
2023-08-01T01:31:12.208Z,19.38
2023-08-01T01:33:17.365Z,19.31
2023-08-01T01:35:22.450Z,19.27
2023-08-01T01:37:30.034Z,19.31
2023-08-01T01:39:36.093Z,19.33
2023-08-01T01:41:41.047Z,19.27
2023-08-01T01:43:48.210Z,19.23
2023-08-01T01:45:53.207Z,19.27
2023-08-01T01:47:58.932Z,19.24
2023-08-01T01:50:04.681Z,19.26
2023-08-01T01:52:12.365Z,19.22
2023-08-01T01:54:19.903Z,19.25
2023-08-01T01:56:26.476Z,19.25
2023-08-01T01:58:31.835Z,19.23
2023-08-01T02:00:39.484Z,19.22
2023-08-01T02:02:45.199Z,19.17
2023-08-01T02:04:51.262Z,19.20
2023-08-01T02:06:56.250Z,19.16
2023-08-01T02:08:58.505Z,19.13
2023-08-01T02:11:13.044Z,19.12
2023-08-01T02:13:18.011Z,19.10
2023-08-01T02:15:22.969Z,19.11
2023-08-01T02:17:28.031Z,19.09
2023-08-01T02:19:33.472Z,19.13
2023-08-01T02:21:38.495Z,19.13
2023-08-01T02:23:43.477Z,19.12
2023-08-01T02:25:48.452Z,19.06
2023-08-01T02:27:56.151Z,19.09
2023-08-01T02:30:01.168Z,19.10
2023-08-01T02:32:06.174Z,19.14
2023-08-01T02:34:11.029Z,19.15
2023-08-01T02:36:15.998Z,19.17
2023-08-01T02:38:20.835Z,19.16
2023-08-01T02:40:27.333Z,19.13
2023-08-01T02:42:29.668Z,19.13
2023-08-01T02:44:37.148Z,19.19
2023-08-01T02:46:42.473Z,19.20
2023-08-01T02:48:47.585Z,19.22
2023-08-01T02:50:52.533Z,19.25
2023-08-01T02:52:57.495Z,19.27
2023-08-01T02:55:02.468Z,19.31
2023-08-01T02:57:07.683Z,19.33
2023-08-01T02:59:13.033Z,19.38
2023-08-01T03:01:21.575Z,19.41
2023-08-01T03:03:26.650Z,19.39
2023-08-01T03:05:33.314Z,19.36
2023-08-01T03:07:38.310Z,19.35
2023-08-01T03:09:41.035Z,19.37
2023-08-01T03:11:46.080Z,19.40
2023-08-01T03:13:51.745Z,19.34
2023-08-01T03:15:56.740Z,19.32
2023-08-01T03:18:05.383Z,19.26
2023-08-01T03:20:12.277Z,19.24
2023-08-01T03:22:18.014Z,19.24
2023-08-01T03:24:22.967Z,19.25
2023-08-01T03:26:29.629Z,19.23
2023-08-01T03:28:34.853Z,19.14
2023-08-01T03:30:39.578Z,19.11
2023-08-01T03:32:44.607Z,19.10
2023-08-01T03:34:52.183Z,19.05
2023-08-01T03:36:57.191Z,19.05
2023-08-01T03:38:59.367Z,19.04
2023-08-01T03:41:05.348Z,18.99
2023-08-01T03:43:11.203Z,18.95
2023-08-01T03:45:16.524Z,18.91
2023-08-01T03:47:21.490Z,18.97
2023-08-01T03:49:26.571Z,18.98
2023-08-01T03:51:35.514Z,18.97
2023-08-01T03:53:43.233Z,18.95
2023-08-01T03:55:51.021Z,18.97
2023-08-01T03:57:56.208Z,18.92
2023-08-01T04:00:05.180Z,18.86
2023-08-01T04:02:17.517Z,18.90
2023-08-01T04:04:22.455Z,18.92
2023-08-01T04:06:24.833Z,18.96
2023-08-01T04:08:32.385Z,18.96
2023-08-01T04:10:37.356Z,18.94
2023-08-01T04:12:39.715Z,18.93
2023-08-01T04:14:45.197Z,18.90
2023-08-01T04:16:50.267Z,18.87
2023-08-01T04:18:57.692Z,18.83
2023-08-01T04:21:02.609Z,18.82
2023-08-01T04:23:07.642Z,18.88
2023-08-01T04:25:18.361Z,18.85
2023-08-01T04:27:21.062Z,18.82
2023-08-01T04:29:26.195Z,18.81
2023-08-01T04:31:30.916Z,18.74
2023-08-01T04:33:35.963Z,18.74
2023-08-01T04:35:40.703Z,18.66
2023-08-01T04:37:45.649Z,18.64
2023-08-01T04:39:54.646Z,18.69
2023-08-01T04:42:02.657Z,18.71
2023-08-01T04:44:05.420Z,18.70
2023-08-01T04:46:12.462Z,18.72
2023-08-01T04:48:18.985Z,18.69
2023-08-01T04:50:25.298Z,18.72
2023-08-01T04:52:30.299Z,18.71
2023-08-01T04:54:35.490Z,18.69
2023-08-01T04:56:40.702Z,18.74
2023-08-01T04:58:48.503Z,18.75
2023-08-01T05:00:53.748Z,18.81
2023-08-01T05:02:59.076Z,18.84
2023-08-01T05:05:06.185Z,18.88
2023-08-01T05:07:18.838Z,18.94
2023-08-01T05:09:25.175Z,18.98
2023-08-01T05:11:30.253Z,18.96
2023-08-01T05:13:32.832Z,18.95
2023-08-01T05:15:40.411Z,18.94
2023-08-01T05:17:45.585Z,18.98
2023-08-01T05:19:52.381Z,18.92
2023-08-01T05:21:57.139Z,18.95
2023-08-01T05:24:02.102Z,19.00
2023-08-01T05:26:06.915Z,19.04
2023-08-01T05:28:11.892Z,19.06
2023-08-01T05:30:18.848Z,19.08
2023-08-01T05:32:26.725Z,19.12
2023-08-01T05:34:32.048Z,19.15
2023-08-01T05:36:38.655Z,19.19
2023-08-01T05:38:41.706Z,19.20
2023-08-01T05:40:46.673Z,19.23
2023-08-01T05:42:52.176Z,19.29
2023-08-01T05:44:57.149Z,19.36
2023-08-01T05:47:02.209Z,19.31
2023-08-01T05:49:09.901Z,19.37
2023-08-01T05:51:16.925Z,19.38
2023-08-01T05:53:26.034Z,19.45
2023-08-01T05:55:31.186Z,19.41
2023-08-01T05:57:36.289Z,19.47
2023-08-01T05:59:41.396Z,19.45
2023-08-01T06:01:46.420Z,19.44
2023-08-01T06:03:51.312Z,19.33
2023-08-01T06:05:59.043Z,19.36
2023-08-01T06:08:04.872Z,19.31
2023-08-01T06:10:11.358Z,19.36
2023-08-01T06:12:16.694Z,19.40
2023-08-01T06:14:22.137Z,19.40
2023-08-01T06:16:28.239Z,19.38
2023-08-01T06:18:33.421Z,19.39
2023-08-01T06:20:35.689Z,19.38
2023-08-01T06:22:43.248Z,19.34
2023-08-01T06:24:48.211Z,19.36
2023-08-01T06:26:53.248Z,19.36
2023-08-01T06:28:58.037Z,19.37
2023-08-01T06:31:03.593Z,19.39
2023-08-01T06:33:08.757Z,19.42
2023-08-01T06:35:12.333Z,19.44
2023-08-01T06:37:17.427Z,19.42
2023-08-01T06:39:24.736Z,19.37
2023-08-01T06:41:29.777Z,19.37
2023-08-01T06:43:34.905Z,19.33
2023-08-01T06:45:39.947Z,19.31
2023-08-01T06:47:44.874Z,19.28
2023-08-01T06:49:49.891Z,19.30
2023-08-01T06:51:55.185Z,19.33
2023-08-01T06:54:00.176Z,19.37
2023-08-01T06:56:07.319Z,19.35
2023-08-01T06:58:12.350Z,19.37
2023-08-01T07:00:17.899Z,19.40
2023-08-01T07:02:23.749Z,19.42
2023-08-01T07:04:28.841Z,19.45
2023-08-01T07:06:36.456Z,19.44
2023-08-01T07:08:41.369Z,19.41
2023-08-01T07:10:46.389Z,19.40
2023-08-01T07:12:53.907Z,19.42
2023-08-01T07:15:01.060Z,19.43
2023-08-01T07:17:07.540Z,19.49
2023-08-01T07:19:12.505Z,19.51
2023-08-01T07:21:22.349Z,19.42
2023-08-01T07:23:27.556Z,19.49
2023-08-01T07:25:32.557Z,19.52
2023-08-01T07:27:39.036Z,19.55
2023-08-01T07:29:46.887Z,19.59
2023-08-01T07:31:51.981Z,19.59
2023-08-01T07:33:57.077Z,19.59
2023-08-01T07:36:01.954Z,19.58
2023-08-01T07:38:07.178Z,19.54
2023-08-01T07:40:22.877Z,19.52
2023-08-01T07:42:27.871Z,19.51
2023-08-01T07:44:32.968Z,19.52
2023-08-01T07:46:40.546Z,19.51
2023-08-01T07:48:45.677Z,19.47
2023-08-01T07:50:50.607Z,19.53
2023-08-01T07:52:56.645Z,19.47
2023-08-01T07:55:01.816Z,19.50
2023-08-01T07:57:07.700Z,19.53
2023-08-01T07:59:12.650Z,19.55
2023-08-01T08:01:18.320Z,19.54
2023-08-01T08:03:26.295Z,19.55
2023-08-01T08:05:31.493Z,19.57
2023-08-01T08:07:36.518Z,19.56
2023-08-01T08:09:41.523Z,19.56
2023-08-01T08:11:46.488Z,19.57
2023-08-01T08:13:51.645Z,19.57
2023-08-01T08:15:59.221Z,19.51
2023-08-01T08:18:06.121Z,19.51
2023-08-01T08:20:14.402Z,19.34
2023-08-01T08:22:21.672Z,19.33
2023-08-01T08:24:26.670Z,19.32
2023-08-01T08:26:32.492Z,19.20
2023-08-01T08:28:38.102Z,19.16
2023-08-01T08:30:43.804Z,19.21
2023-08-01T08:32:48.781Z,19.16
2023-08-01T08:34:54.993Z,19.10
2023-08-01T08:37:02.307Z,19.11
2023-08-01T08:39:08.108Z,19.08
2023-08-01T08:41:14.381Z,19.01
2023-08-01T08:43:18.308Z,18.94
2023-08-01T08:45:25.131Z,18.78
2023-08-01T08:47:32.287Z,18.77
2023-08-01T08:49:37.534Z,18.53
2023-08-01T08:51:43.082Z,18.50
2023-08-01T08:53:53.564Z,18.58
2023-08-01T08:55:56.021Z,18.61
2023-08-01T08:58:03.286Z,18.65
2023-08-01T09:00:07.254Z,18.53
2023-08-01T09:02:12.805Z,18.47
2023-08-01T09:04:17.782Z,18.52
2023-08-01T09:06:28.317Z,18.54
2023-08-01T09:08:37.222Z,18.61
2023-08-01T09:10:44.987Z,18.68
2023-08-01T09:12:50.651Z,18.73
2023-08-01T09:14:59.331Z,18.90
2023-08-01T09:17:12.405Z,19.08
2023-08-01T09:19:21.003Z,19.30
2023-08-01T09:21:26.837Z,19.42
2023-08-01T09:23:32.050Z,19.42
2023-08-01T09:25:34.968Z,19.61
2023-08-01T09:27:42.751Z,19.74
2023-08-01T09:29:47.811Z,19.85
2023-08-01T09:31:52.716Z,19.98
2023-08-01T09:33:58.045Z,19.99
2023-08-01T09:36:05.118Z,20.08
2023-08-01T09:38:10.058Z,20.24
2023-08-01T09:40:15.316Z,20.23
2023-08-01T09:42:22.503Z,20.16
2023-08-01T09:44:31.608Z,20.24
2023-08-01T09:46:36.764Z,20.30
2023-08-01T09:48:43.359Z,20.26
2023-08-01T09:50:48.825Z,20.33
2023-08-01T09:52:54.549Z,20.31
2023-08-01T09:55:01.242Z,20.43
2023-08-01T09:57:08.471Z,20.49
2023-08-01T09:59:17.944Z,20.51
2023-08-01T10:01:29.447Z,20.42
2023-08-01T10:03:34.981Z,20.55
2023-08-01T10:05:42.886Z,20.58
2023-08-01T10:07:48.797Z,20.73
2023-08-01T10:09:55.668Z,20.98
2023-08-01T10:12:02.317Z,21.03
2023-08-01T10:14:07.442Z,21.09
2023-08-01T10:16:13.212Z,21.06
2023-08-01T10:18:22.647Z,21.07
2023-08-01T10:20:28.646Z,21.12
2023-08-01T10:22:35.512Z,21.17
2023-08-01T10:24:41.502Z,21.27
2023-08-01T10:26:48.629Z,21.35
2023-08-01T10:28:55.672Z,21.26
2023-08-01T10:31:11.216Z,21.26
2023-08-01T10:33:17.131Z,20.94
2023-08-01T10:35:35.794Z,20.80
2023-08-01T10:37:45.827Z,20.91
2023-08-01T10:40:00.804Z,20.82
2023-08-01T10:42:08.323Z,20.76
2023-08-01T10:44:16.038Z,20.88
2023-08-01T10:46:20.972Z,20.95
2023-08-01T10:48:25.850Z,20.93
2023-08-01T10:50:33.429Z,20.92
2023-08-01T10:52:38.427Z,20.95
2023-08-01T10:54:44.819Z,20.96
2023-08-01T10:56:50.546Z,20.99
2023-08-01T10:58:56.459Z,21.13
2023-08-01T11:01:02.240Z,21.11
2023-08-01T11:03:07.617Z,21.33
2023-08-01T11:05:12.825Z,21.54
2023-08-01T11:07:20.112Z,21.68
2023-08-01T11:09:26.516Z,21.67
2023-08-01T11:11:31.692Z,21.80
2023-08-01T11:13:37.493Z,21.92
2023-08-01T11:15:42.604Z,21.92
2023-08-01T11:17:51.985Z,22.07
2023-08-01T11:20:05.650Z,22.12
2023-08-01T11:22:14.421Z,22.05
2023-08-01T11:24:24.141Z,21.90
2023-08-01T11:26:29.608Z,21.74
2023-08-01T11:28:34.756Z,21.87
2023-08-01T11:30:40.835Z,21.96
2023-08-01T11:32:48.109Z,21.89
2023-08-01T11:34:53.332Z,21.87
2023-08-01T11:36:58.964Z,21.95
2023-08-01T11:39:05.017Z,21.85
2023-08-01T11:41:12.739Z,21.86
2023-08-01T11:43:17.702Z,21.46
2023-08-01T11:45:22.543Z,20.93
2023-08-01T11:47:26.094Z,20.76
2023-08-01T11:49:31.282Z,20.54
2023-08-01T11:51:42.615Z,20.23
2023-08-01T11:53:49.585Z,20.20
2023-08-01T11:55:57.937Z,20.08
2023-08-01T11:58:06.339Z,20.09
2023-08-01T12:00:14.724Z,19.92
2023-08-01T12:02:27.331Z,19.89
2023-08-01T12:04:33.543Z,19.87
2023-08-01T12:06:39.704Z,19.68
2023-08-01T12:08:46.771Z,19.48
2023-08-01T12:10:51.799Z,19.28
2023-08-01T12:12:56.715Z,19.34
2023-08-01T12:15:04.856Z,19.38
2023-08-01T12:17:09.837Z,19.56
2023-08-01T12:19:16.865Z,19.48
2023-08-01T12:21:24.636Z,19.45
2023-08-01T12:23:30.215Z,19.44
2023-08-01T12:25:34.876Z,19.44
2023-08-01T12:27:40.454Z,19.47
2023-08-01T12:29:45.364Z,19.60
2023-08-01T12:31:53.051Z,19.69
2023-08-01T12:33:58.210Z,19.89
2023-08-01T12:36:03.573Z,19.92
2023-08-01T12:38:05.959Z,20.01
2023-08-01T12:40:11.662Z,20.20
2023-08-01T12:42:16.654Z,20.35
2023-08-01T12:44:22.238Z,20.41
2023-08-01T12:46:27.896Z,20.52
2023-08-01T12:48:35.539Z,20.48
2023-08-01T12:50:40.611Z,20.48
2023-08-01T12:52:45.469Z,20.46
2023-08-01T12:54:50.395Z,20.49
2023-08-01T12:56:55.385Z,20.64
2023-08-01T12:58:57.573Z,20.62
2023-08-01T13:01:02.528Z,20.61
2023-08-01T13:03:08.114Z,20.62
2023-08-01T13:05:16.044Z,20.59
2023-08-01T13:07:21.584Z,20.69
2023-08-01T13:09:26.530Z,20.71
2023-08-01T13:11:31.247Z,20.64
2023-08-01T13:13:36.293Z,20.64
2023-08-01T13:15:41.255Z,20.73
2023-08-01T13:17:46.545Z,20.80
2023-08-01T13:19:51.265Z,20.83
2023-08-01T13:21:58.908Z,20.91
2023-08-01T13:24:06.002Z,20.94
2023-08-01T13:26:08.401Z,21.07
2023-08-01T13:28:15.833Z,21.03
2023-08-01T13:30:19.724Z,21.14
2023-08-01T13:32:24.718Z,21.23
2023-08-01T13:34:29.497Z,21.23
2023-08-01T13:36:34.503Z,21.30
2023-08-01T13:38:41.777Z,21.45
2023-08-01T13:40:47.890Z,21.57
2023-08-01T13:42:54.326Z,21.61
2023-08-01T13:44:59.301Z,21.42
2023-08-01T13:47:04.731Z,21.16
2023-08-01T13:49:09.727Z,20.92
2023-08-01T13:51:14.676Z,20.84
2023-08-01T13:53:19.627Z,20.76
2023-08-01T13:55:24.579Z,20.81
2023-08-01T13:57:30.079Z,20.38
2023-08-01T13:59:35.013Z,20.07
2023-08-01T14:01:40.066Z,19.96
2023-08-01T14:03:42.705Z,19.93
2023-08-01T14:05:47.779Z,19.97
2023-08-01T14:07:52.623Z,19.84
2023-08-01T14:09:57.614Z,19.89
2023-08-01T14:12:04.970Z,19.88
2023-08-01T14:14:10.204Z,20.20
2023-08-01T14:16:15.491Z,20.46
2023-08-01T14:18:20.899Z,20.65
2023-08-01T14:20:27.185Z,20.81
2023-08-01T14:22:32.456Z,21.00
2023-08-01T14:24:37.428Z,21.02
2023-08-01T14:26:43.207Z,21.01
2023-08-01T14:28:51.488Z,21.10
2023-08-01T14:30:56.448Z,21.10
2023-08-01T14:33:04.061Z,21.16
2023-08-01T14:35:13.251Z,21.20
2023-08-01T14:37:18.307Z,21.14
2023-08-01T14:39:23.496Z,21.17
2023-08-01T14:41:46.996Z,21.21
2023-08-01T14:43:56.238Z,21.30
2023-08-01T14:46:01.492Z,21.30
2023-08-01T14:48:08.894Z,21.38
2023-08-01T14:50:17.771Z,21.37
2023-08-01T14:52:25.739Z,21.58
2023-08-01T14:54:40.784Z,21.69
2023-08-01T14:56:46.482Z,21.83
2023-08-01T14:58:51.333Z,22.02
2023-08-01T15:00:59.039Z,22.27
2023-08-01T15:03:04.990Z,22.51
2023-08-01T15:05:12.347Z,22.61
2023-08-01T15:07:17.544Z,22.85
2023-08-01T15:09:22.590Z,23.00
2023-08-01T15:11:28.496Z,22.96
2023-08-01T15:13:35.139Z,23.07
2023-08-01T15:15:41.149Z,23.31
2023-08-01T15:17:48.873Z,23.23
2023-08-01T15:19:54.963Z,23.20
2023-08-01T15:21:59.969Z,23.45
2023-08-01T15:24:07.988Z,23.39
2023-08-01T15:26:12.960Z,23.57
2023-08-01T15:28:15.151Z,23.72
2023-08-01T15:30:20.352Z,23.70
2023-08-01T15:32:25.429Z,23.66
2023-08-01T15:34:33.100Z,23.26
2023-08-01T15:36:38.478Z,23.40
2023-08-01T15:38:43.830Z,23.36
2023-08-01T15:40:49.236Z,23.52
2023-08-01T15:42:54.414Z,23.62
2023-08-01T15:44:59.379Z,23.44
2023-08-01T15:47:04.028Z,23.08
2023-08-01T15:49:10.997Z,22.96
2023-08-01T15:51:18.750Z,23.13
2023-08-01T15:53:26.890Z,23.30
2023-08-01T15:55:32.088Z,23.67
2023-08-01T15:57:37.055Z,23.84
2023-08-01T15:59:41.656Z,24.00
2023-08-01T16:01:46.699Z,24.08
2023-08-01T16:03:51.686Z,24.23
2023-08-01T16:05:57.273Z,24.44
2023-08-01T16:08:04.870Z,24.57
2023-08-01T16:10:10.174Z,24.75
2023-08-01T16:12:15.175Z,24.89
2023-08-01T16:14:34.943Z,25.13
2023-08-01T16:16:45.373Z,25.12
2023-08-01T16:18:50.419Z,25.18
2023-08-01T16:20:55.396Z,24.98
2023-08-01T16:23:00.724Z,25.03
2023-08-01T16:25:12.188Z,24.85
2023-08-01T16:27:17.252Z,24.39
2023-08-01T16:29:21.948Z,24.17
2023-08-01T16:31:26.889Z,24.13
2023-08-01T16:33:31.581Z,23.71
2023-08-01T16:35:37.167Z,23.39
2023-08-01T16:37:39.631Z,23.21
2023-08-01T16:39:44.741Z,23.04
2023-08-01T16:41:52.481Z,22.93
2023-08-01T16:43:57.664Z,22.66
2023-08-01T16:46:04.042Z,22.49
2023-08-01T16:48:12.456Z,22.46
2023-08-01T16:50:21.640Z,22.34
2023-08-01T16:52:26.828Z,22.30
2023-08-01T16:54:31.518Z,22.25
2023-08-01T16:56:36.581Z,22.17
2023-08-01T16:58:43.893Z,22.23
2023-08-01T17:00:48.984Z,22.35
2023-08-01T17:02:53.807Z,22.42
2023-08-01T17:04:59.364Z,22.33
2023-08-01T17:07:04.812Z,22.26
2023-08-01T17:09:13.025Z,22.23
2023-08-01T17:11:21.980Z,22.23
2023-08-01T17:13:29.100Z,22.22
2023-08-01T17:15:36.622Z,22.22
2023-08-01T17:17:41.885Z,22.12
2023-08-01T17:19:45.949Z,22.02
2023-08-01T17:21:50.979Z,21.90
2023-08-01T17:23:55.844Z,21.82
2023-08-01T17:26:01.005Z,21.86
2023-08-01T17:28:06.296Z,21.80
2023-08-01T17:30:15.832Z,21.85
2023-08-01T17:32:24.619Z,21.79
2023-08-01T17:34:29.575Z,21.76
2023-08-01T17:36:34.992Z,21.67
2023-08-01T17:38:40.915Z,21.76
2023-08-01T17:40:48.669Z,21.75
2023-08-01T17:42:56.635Z,21.66
2023-08-01T17:45:01.671Z,21.27
2023-08-01T17:47:06.699Z,20.72
2023-08-01T17:49:14.507Z,20.18
2023-08-01T17:51:21.650Z,19.84
2023-08-01T17:53:27.948Z,19.64
2023-08-01T17:55:34.634Z,19.51
2023-08-01T17:57:39.749Z,19.43
2023-08-01T17:59:44.430Z,19.30
2023-08-01T18:01:49.401Z,19.26
2023-08-01T18:03:55.003Z,19.22
2023-08-01T18:06:10.584Z,19.32
2023-08-01T18:08:15.895Z,19.29
2023-08-01T18:10:21.150Z,19.26
2023-08-01T18:12:26.725Z,19.40
2023-08-01T18:14:33.406Z,19.48
2023-08-01T18:16:38.441Z,19.43
2023-08-01T18:18:43.155Z,19.45
2023-08-01T18:20:49.183Z,19.44
2023-08-01T18:22:56.697Z,19.45
2023-08-01T18:25:00.396Z,19.32
2023-08-01T18:27:05.666Z,19.17
2023-08-01T18:29:11.592Z,19.12
2023-08-01T18:31:14.236Z,19.05
2023-08-01T18:33:22.379Z,18.96
2023-08-01T18:35:27.800Z,18.82
2023-08-01T18:37:32.758Z,18.70
2023-08-01T18:39:40.389Z,18.67
2023-08-01T18:41:45.564Z,18.55
2023-08-01T18:43:50.752Z,18.45
2023-08-01T18:45:58.880Z,18.42
2023-08-01T18:48:03.949Z,18.47
2023-08-01T18:50:11.102Z,18.39
2023-08-01T18:52:16.134Z,18.26
2023-08-01T18:54:22.961Z,18.14
2023-08-01T18:56:31.415Z,18.00
2023-08-01T18:58:36.406Z,17.91
2023-08-01T19:00:41.370Z,17.81
2023-08-01T19:02:49.598Z,17.66
2023-08-01T19:04:55.456Z,17.63
2023-08-01T19:07:01.218Z,17.62
2023-08-01T19:09:20.221Z,17.58
2023-08-01T19:11:30.774Z,17.57
2023-08-01T19:13:38.981Z,17.60
2023-08-01T19:15:43.936Z,17.71
2023-08-01T19:17:48.948Z,17.62
2023-08-01T19:19:53.806Z,17.55
2023-08-01T19:21:58.857Z,17.53
2023-08-01T19:24:06.342Z,17.51
2023-08-01T19:26:13.224Z,17.53
2023-08-01T19:28:18.299Z,17.56
2023-08-01T19:30:32.673Z,17.55
2023-08-01T19:32:35.222Z,17.60
2023-08-01T19:34:40.192Z,17.64
2023-08-01T19:36:47.613Z,17.63
2023-08-01T19:38:52.575Z,17.63
2023-08-01T19:41:02.378Z,17.76
2023-08-01T19:43:09.782Z,17.79
2023-08-01T19:45:16.379Z,17.86
2023-08-01T19:47:26.457Z,17.86
2023-08-01T19:49:30.826Z,17.91
2023-08-01T19:51:36.266Z,17.87
2023-08-01T19:53:41.422Z,17.85
2023-08-01T19:55:46.681Z,17.87
2023-08-01T19:57:49.807Z,17.94
2023-08-01T19:59:54.822Z,18.05
2023-08-01T20:01:59.882Z,17.97
2023-08-01T20:04:07.450Z,17.95
2023-08-01T20:06:12.552Z,17.97
2023-08-01T20:08:17.531Z,18.00
2023-08-01T20:10:22.664Z,18.03
2023-08-01T20:12:27.418Z,17.95
2023-08-01T20:14:32.396Z,17.96
2023-08-01T20:16:38.180Z,17.92
2023-08-01T20:18:43.099Z,17.86
2023-08-01T20:20:51.017Z,17.85
2023-08-01T20:22:56.253Z,17.91
2023-08-01T20:25:03.311Z,18.02
2023-08-01T20:27:11.296Z,18.09
2023-08-01T20:29:16.291Z,18.09
2023-08-01T20:31:21.202Z,18.13
2023-08-01T20:33:26.419Z,18.15
2023-08-01T20:35:28.642Z,18.08
2023-08-01T20:37:36.455Z,17.99
2023-08-01T20:39:41.861Z,18.02
2023-08-01T20:41:45.429Z,17.91
2023-08-01T20:43:50.418Z,17.92
2023-08-01T20:45:57.122Z,17.95
2023-08-01T20:48:07.319Z,17.87
2023-08-01T20:50:14.880Z,17.92
2023-08-01T20:52:19.846Z,17.90
2023-08-01T20:54:27.691Z,17.90
2023-08-01T20:56:33.971Z,17.92
2023-08-01T20:58:38.991Z,17.90
2023-08-01T21:00:43.731Z,17.92
2023-08-01T21:02:52.025Z,17.94
2023-08-01T21:04:57.883Z,18.02
2023-08-01T21:07:02.904Z,18.02
2023-08-01T21:09:11.376Z,18.05
2023-08-01T21:11:20.265Z,18.06
2023-08-01T21:13:25.295Z,18.06
2023-08-01T21:15:28.597Z,18.05
2023-08-01T21:17:33.607Z,18.08
2023-08-01T21:19:38.430Z,18.09
2023-08-01T21:21:43.431Z,18.08
2023-08-01T21:23:48.209Z,18.01
2023-08-01T21:25:53.969Z,17.94
2023-08-01T21:28:01.576Z,18.02
2023-08-01T21:30:07.117Z,18.08
2023-08-01T21:32:12.246Z,18.09
2023-08-01T21:34:18.370Z,18.09
2023-08-01T21:36:24.582Z,18.13
2023-08-01T21:38:27.007Z,18.14
2023-08-01T21:40:31.997Z,18.20
2023-08-01T21:42:39.717Z,18.23
2023-08-01T21:44:47.372Z,18.23
2023-08-01T21:46:53.556Z,18.22
2023-08-01T21:49:02.990Z,18.20
2023-08-01T21:51:10.046Z,18.14
2023-08-01T21:53:14.971Z,18.02
2023-08-01T21:55:22.479Z,18.04
2023-08-01T21:57:27.546Z,17.98
2023-08-01T21:59:32.499Z,17.85
2023-08-01T22:01:37.472Z,17.84
2023-08-01T22:03:42.466Z,17.82
2023-08-01T22:05:47.560Z,17.76
2023-08-01T22:07:52.272Z,17.65
2023-08-01T22:09:57.259Z,17.58
2023-08-01T22:12:02.284Z,17.61
2023-08-01T22:14:07.284Z,17.69
2023-08-01T22:16:12.333Z,17.68
2023-08-01T22:18:25.145Z,17.56
2023-08-01T22:20:31.091Z,17.35
2023-08-01T22:22:33.540Z,17.30
2023-08-01T22:24:38.487Z,17.38
2023-08-01T22:26:46.817Z,17.40
2023-08-01T22:28:51.795Z,17.31
2023-08-01T22:30:56.736Z,17.31
2023-08-01T22:33:04.746Z,17.26
2023-08-01T22:35:13.010Z,17.32
2023-08-01T22:37:18.401Z,17.34
2023-08-01T22:39:24.465Z,17.29
2023-08-01T22:41:30.623Z,17.26
2023-08-01T22:43:35.612Z,17.36
2023-08-01T22:45:41.733Z,17.37
2023-08-01T22:47:46.812Z,17.34
2023-08-01T22:50:03.401Z,17.28
2023-08-01T22:52:15.586Z,17.26
2023-08-01T22:54:21.759Z,17.20
2023-08-01T22:56:27.332Z,17.07
2023-08-01T22:58:31.921Z,16.99
2023-08-01T23:00:36.972Z,16.91
2023-08-01T23:02:42.022Z,16.95
2023-08-01T23:04:48.539Z,16.88
2023-08-01T23:06:53.990Z,16.84
2023-08-01T23:09:01.698Z,16.85
2023-08-01T23:11:06.680Z,16.84
2023-08-01T23:13:11.610Z,16.84
2023-08-01T23:15:16.875Z,16.85
2023-08-01T23:17:22.296Z,16.79
2023-08-01T23:19:27.545Z,16.84
2023-08-01T23:21:32.621Z,16.91
2023-08-01T23:23:37.541Z,17.00
2023-08-01T23:25:46.260Z,17.09
2023-08-01T23:27:51.157Z,17.15
2023-08-01T23:29:56.820Z,17.17
2023-08-01T23:32:03.825Z,17.22
2023-08-01T23:34:08.975Z,17.26
2023-08-01T23:36:13.482Z,17.25
2023-08-01T23:38:18.541Z,17.26
2023-08-01T23:40:24.879Z,17.28
2023-08-01T23:42:33.417Z,17.27
2023-08-01T23:44:38.467Z,17.24
2023-08-01T23:46:43.777Z,17.22
2023-08-01T23:48:46.345Z,17.22
2023-08-01T23:50:51.400Z,17.20
2023-08-01T23:52:56.752Z,17.13
2023-08-01T23:55:01.807Z,17.12
2023-08-01T23:57:07.396Z,17.10
2023-08-01T23:59:14.919Z,17.09
